Data for 08/24/2008

Time Sea-Level Adjusted Pressure Absolute Pressure Temperature Relative Humidity Dew Point   
(mb) (inHg) (mb) (inHg) (C) (F) (%) (C) (F)
00:05 1020 30.12 849 25.07 17.6 63.6 28 -0.8 30.5
00:10 1020 30.12 849 25.07 17.4 63.4 29 -0.7 30.7
00:15 1020 30.12 849 25.07 17.5 63.4 28 -0.9 30.4
00:20 1020 30.12 849 25.07 17.6 63.7 27 -1.3 29.7
00:25 1020 30.12 849 25.07 17.6 63.6 29 -0.6 30.9
00:30 1020 30.12 849 25.07 17 62.5 31 -0.2 31.7
00:35 1020 30.12 849 25.07 16.9 62.4 29 -1.2 29.9
00:40 1020 30.12 849 25.07 17.2 62.9 30 -0.5 31.2
00:45 1020 30.12 849 25.07 16.9 62.5 29 -0.9 30.4
00:50 1020 30.12 849 25.07 16.9 62.4 29 -1.1 30
00:55 1020 30.12 849 25.07 16.7 62.1 30 -0.9 30.3
01:00 1020 30.12 849 25.07 16.5 61.6 31 -0.8 30.5
01:05 1020 30.12 849 25.07 16.2 61.2 32 -0.5 31.1
01:10 1020 30.12 849 25.07 16.2 61.2 31 -0.9 30.4
01:15 1020 30.12 849 25.07 16.2 61.2 30 -1.5 29.4
01:20 1020 30.12 850 25.1 16.7 62.1 29 -1.5 29.4
01:25 1020 30.12 850 25.1 16.9 62.4 28 -1.6 29.1
01:30 1020 30.12 850 25.1 17 62.5 28 -1.3 29.6
01:35 1020 30.12 850 25.1 16.8 62.2 28 -1.8 28.7
01:40 1020 30.12 850 25.1 16.8 62.2 29 -1.3 29.7
01:45 1020 30.12 850 25.1 16.3 61.3 30 -1 30.2
01:50 1021 30.15 850 25.1 15.9 60.6 33 -0.3 31.5
01:55 1021 30.15 850 25.1 15.7 60.2 32 -0.9 30.3
02:00 1021 30.15 850 25.1 16.2 61.2 31 -0.9 30.4
02:05 1021 30.15 850 25.1 16 60.8 33 -0.1 31.9
02:10 1021 30.15 850 25.1 15.4 59.7 34 -0.5 31.2
02:15 1021 30.15 850 25.1 15.4 59.8 35 0.1 32.2
02:20 1021 30.15 850 25.1 15.4 59.6 35 -0 32
02:25 1021 30.15 850 25.1 15.1 59.1 37 0.8 33.4
02:30 1021 30.15 850 25.1 14.7 58.4 38 0.6 33.1
02:35 1021 30.15 850 25.1 14.2 57.6 40 1 33.8
02:40 1021 30.15 850 25.1 14 57.1 40 0.6 33
02:45 1021 30.15 850 25.1 13.9 57 42 1.4 34.5
02:50 1021 30.15 850 25.1 13.5 56.3 39 -0.2 31.6
02:55 1021 30.15 850 25.1 13.9 57 40 0.5 32.9
03:00 1021 30.15 850 25.1 14.5 58 33 -1.5 29.3
03:05 1021 30.15 850 25.1 15 59 38 0.8 33.4
03:10 1021 30.15 850 25.1 13.9 57 35 -1.1 30
03:15 1021 30.15 850 25.1 14.5 58.2 33 -1.6 29.2
03:20 1021 30.15 850 25.1 14.8 58.6 36 -0 32
03:25 1021 30.15 850 25.1 14.4 57.9 35 -0.8 30.6
03:30 1021 30.15 850 25.1 14.3 57.7 39 0.6 33.1
03:35 1021 30.15 850 25.1 13.3 56 44 1.5 34.7
03:40 1021 30.15 850 25.1 12.3 54.2 46 1 33.8
03:45 1021 30.15 850 25.1 12.4 54.4 45 0.7 33.3
03:50 1021 30.15 850 25.1 13.3 55.9 38 -0.7 30.8
03:55 1021 30.15 850 25.1 14.1 57.3 38 0.1 32.2
04:00 1021 30.15 850 25.1 13.7 56.7 38 -0.2 31.6
04:05 1021 30.15 850 25.1 14.5 58.1 31 -2.3 27.9
04:10 1021 30.15 850 25.1 15 59.1 35 -0.2 31.6
04:15 1021 30.15 850 25.1 14.3 57.7 36 -0.7 30.7
04:20 1021 30.15 850 25.1 14.8 58.6 36 -0.1 31.8
04:25 1021 30.15 850 25.1 14.4 58 37 -0 31.9
04:30 1021 30.15 850 25.1 14.4 57.9 34 -1.1 30
04:35 1021 30.15 850 25.1 14.9 58.8 33 -1.3 29.6
04:40 1021 30.15 850 25.1 15.1 59.2 34 -0.6 30.9
04:45 1021 30.15 850 25.1 14.1 57.4 40 0.9 33.7
04:50 1021 30.15 850 25.1 13.6 56.4 37 -0.9 30.4
04:55 1021 30.15 850 25.1 14 57.1 41 0.9 33.7
05:00 1021 30.15 850 25.1 13.4 56.2 38 -0.4 31.3
05:05 1021 30.15 850 25.1 13.8 56.8 34 -1.9 28.6
05:10 1021 30.15 850 25.1 14.4 58 36 -0.3 31.5
05:15 1021 30.15 850 25.1 13.8 56.8 37 -0.4 31.3
05:20 1021 30.15 850 25.1 13.8 56.8 39 0.2 32.3
05:25 1021 30.15 850 25.1 13.6 56.5 38 -0.5 31.2
05:30 1021 30.15 850 25.1 13.8 56.8 40 0.7 33.2
05:35 1021 30.15 850 25.1 13.3 56 39 -0.2 31.6
05:40 1021 30.15 850 25.1 13.4 56.2 39 -0.2 31.7
05:45 1021 30.15 850 25.1 13.3 55.9 42 0.8 33.5
05:50 1021 30.15 851 25.13 12.8 55 38 -1 30.1
05:55 1021 30.15 851 25.13 13.1 55.6 39 -0.4 31.3
06:00 1021 30.15 851 25.13 13.1 55.5 37 -1.3 29.7
06:05 1021 30.15 851 25.13 13.2 55.8 40 -0.1 31.8
06:10 1021 30.15 851 25.13 12.9 55.3 41 -0.1 31.9
06:15 1022 30.18 851 25.13 12.9 55.2 39 -0.7 30.7
06:20 1022 30.18 851 25.13 13 55.4 38 -0.8 30.6
06:25 1022 30.18 851 25.13 13 55.4 39 -0.6 31
06:30 1022 30.18 851 25.13 12.7 54.9 40 -0.5 31
06:35 1022 30.18 851 25.13 12.6 54.7 39 -0.9 30.5
06:40 1022 30.18 851 25.13 12.7 54.9 39 -0.9 30.4
06:45 1022 30.18 851 25.13 12.5 54.5 43 0.5 32.8
06:50 1022 30.18 851 25.13 11.8 53.2 44 0.1 32.1
06:55 1022 30.18 851 25.13 11.5 52.7 45 0.1 32.2
07:00 1022 30.18 851 25.13 11.4 52.6 45 -0 32
07:05 1022 30.18 851 25.13 11.7 53.1 41 -0.9 30.3
07:10 1022 30.18 851 25.13 12.3 54.1 41 -0.5 31
07:15 1022 30.18 851 25.13 12.5 54.6 40 -0.5 31.1
07:20 1022 30.18 851 25.13 12.6 54.6 41 -0.4 31.2
07:25 1022 30.18 851 25.13 12.7 54.8 39 -0.8 30.5
07:30 1022 30.18 851 25.13 13 55.4 38 -0.8 30.5
07:35 1022 30.18 851 25.13 13.3 56 39 -0.1 31.8
07:40 1022 30.18 851 25.13 13.3 56 39 -0.2 31.6
07:45 1022 30.18 851 25.13 13.4 56 41 0.5 32.9
07:50 1022 30.18 851 25.13 13.1 55.5 43 0.8 33.4
07:55 1022 30.18 851 25.13 13.1 55.5 40 -0.2 31.6
08:00 1022 30.18 851 25.13 13.5 56.2 40 0.1 32.1
08:05 1022 30.18 851 25.13 13.9 57.1 38 0.1 32.1
08:10 1022 30.18 851 25.13 14.6 58.2 36 -0.3 31.5
08:15 1022 30.18 851 25.13 14.8 58.7 34 -0.7 30.8
08:20 1022 30.18 851 25.13 15.3 59.6 34 -0.3 31.5
08:25 1022 30.18 851 25.13 15.7 60.3 35 0.3 32.5
08:30 1022 30.18 851 25.13 16.1 60.9 34 0.4 32.7
08:35 1022 30.18 851 25.13 16.3 61.3 36 1.2 34.2
08:40 1022 30.18 851 25.13 16.3 61.4 36 1.2 34.2
08:45 1022 30.18 851 25.13 16.5 61.6 35 1.2 34.2
08:50 1022 30.18 851 25.13 17.2 62.9 34 1.1 34.1
08:55 1022 30.18 851 25.13 18.5 65.2 30 0.7 33.3
09:00 1022 30.18 851 25.13 19.1 66.3 30 1.2 34.1
09:05 1022 30.18 851 25.13 19.5 67.2 31 2 35.6
09:10 1022 30.18 851 25.13 19.6 67.2 32 2.4 36.3
09:15 1022 30.18 851 25.13 18.7 65.7 33 2.1 35.8
09:20 1022 30.18 851 25.13 18.3 64.9 33 1.9 35.5
09:25 1022 30.18 851 25.13 18.7 65.7 32 1.8 35.2
09:30 1022 30.18 851 25.13 19.1 66.3 32 2.3 36.1
09:35 1022 30.18 851 25.13 19.4 66.9 31 2.1 35.8
09:40 1022 30.18 851 25.13 20 68 31 2.5 36.5
09:45 1022 30.18 851 25.13 19.8 67.6 30 2 35.7
09:50 1022 30.18 851 25.13 19.5 67.1 30 1.8 35.3
09:55 1022 30.18 851 25.13 19.5 67.2 29 1.4 34.5
10:00 1022 30.18 851 25.13 19.4 67 29 1.1 34
10:05 1022 30.18 851 25.13 20 68.1 27 0.6 33.1
10:10 1022 30.18 851 25.13 20.5 68.9 28 1.4 34.5
10:15 1022 30.18 851 25.13 20.8 69.4 24 -0.4 31.2
10:20 1022 30.18 851 25.13 21.9 71.4 23 -0.2 31.7
10:25 1022 30.18 851 25.13 22.7 72.9 21 -0.6 31
10:30 1022 30.18 851 25.13 22.8 73.1 20 -0.8 30.5
10:35 1022 30.18 851 25.13 22.8 73 20 -0.9 30.3
10:40 1022 30.18 851 25.13 22.8 73.1 20 -1 30.3
10:45 1022 30.18 851 25.13 22.6 72.7 21 -0.7 30.8
10:50 1022 30.18 851 25.13 23.1 73.5 20 -0.8 30.5
10:55 1022 30.18 851 25.13 23.2 73.8 20 -0.5 31.2
11:00 1022 30.18 851 25.13 23.6 74.5 21 0.1 32.1
11:05 1022 30.18 851 25.13 24.1 75.3 18 -1.7 28.9
11:10 1022 30.18 851 25.13 24.6 76.3 19 -0.6 30.9
11:15 1022 30.18 851 25.13 25.1 77.1 18 -0.6 31
11:20 1022 30.18 851 25.13 24.4 76 19 -0.3 31.4
11:25 1021 30.15 851 25.13 24.7 76.5 19 -0.1 31.8
11:30 1021 30.15 851 25.13 24.9 76.9 20 0.5 32.9
11:35 1021 30.15 851 25.13 24.5 76.1 20 0.1 32.2
11:40 1021 30.15 851 25.13 24.5 76 19 -0.3 31.5
11:45 1021 30.15 851 25.13 24.9 76.9 20 0.4 32.7
11:50 1021 30.15 851 25.13 25.6 78 19 0.5 32.8
11:55 1021 30.15 850 25.1 26 78.8 18 0.2 32.4
12:00 1021 30.15 850 25.1 25.6 78 19 0.3 32.6
12:05 1021 30.15 850 25.1 24.9 76.7 20 0.5 32.9
12:10 1021 30.15 850 25.1 25.6 78 20 1.2 34.2
12:15 1021 30.15 850 25.1 26 78.9 19 0.8 33.5
12:20 1021 30.15 850 25.1 26.1 78.9 17 -0.3 31.5
12:25 1021 30.15 850 25.1 26.3 79.4 16 -1.6 29.1
12:30 1021 30.15 850 25.1 26.4 79.5 18 0.3 32.6
12:35 1021 30.15 850 25.1 26.4 79.5 18 0.7 33.2
12:40 1021 30.15 850 25.1 26.5 79.6 19 1.2 34.2
12:45 1021 30.15 850 25.1 26.5 79.8 16 -1.4 29.4
12:50 1021 30.15 850 25.1 27 80.5 15 -1.5 29.3
12:55 1021 30.15 850 25.1 26.9 80.4 15 -1.8 28.7
13:00 1021 30.15 850 25.1 26.6 79.9 15 -1.6 29.1
13:05 1021 30.15 850 25.1 27 80.6 15 -1.1 29.9
13:10 1021 30.15 850 25.1 27.6 81.6 15 -1.5 29.2
13:15 1020 30.12 850 25.1 27.4 81.3 15 -1.6 29.2
13:20 1020 30.12 850 25.1 27.9 82.2 15 -0.8 30.5
13:25 1020 30.12 849 25.07 27.9 82.2 16 0.2 32.4
13:30 1020 30.12 849 25.07 28.2 82.7 16 -0.1 31.8
13:35 1020 30.12 849 25.07 28.8 83.8 15 -0.3 31.5
13:40 1020 30.12 849 25.07 29.3 84.8 14 -0.7 30.8
13:45 1020 30.12 849 25.07 28.9 84 15 -0.3 31.4
13:50 1020 30.12 849 25.07 28.5 83.4 15 -0.7 30.7
13:55 1020 30.12 849 25.07 29.1 84.3 15 -0.2 31.7
14:00 1020 30.12 849 25.07 29.4 85 14 -0.3 31.5
14:05 1020 30.12 849 25.07 29.9 85.8 13 -1 30.1
14:10 1020 30.12 849 25.07 29.8 85.7 13 -0.8 30.6
14:15 1020 30.12 849 25.07 30.2 86.4 13 -0.8 30.6
14:20 1020 30.12 849 25.07 30.1 86.2 13 -0.9 30.4
14:25 1020 30.12 849 25.07 29.9 85.8 13 -0.8 30.6
14:30 1020 30.12 849 25.07 29.6 85.3 14 -0.3 31.4
14:35 1019 30.09 849 25.07 30.1 86.1 13 -1 30.1
14:40 1019 30.09 849 25.07 30 86.1 13 -0.8 30.6
14:45 1019 30.09 849 25.07 29.9 85.7 14 0.1 32.1
14:50 1019 30.09 849 25.07 30.1 86.1 13 -0.9 30.3
14:55 1019 30.09 848 25.04 29.6 85.4 13 -1 30.2
15:00 1019 30.09 848 25.04 30.2 86.3 14 0.1 32.2
15:05 1019 30.09 848 25.04 30.3 86.6 13 -0.3 31.4
15:10 1019 30.09 848 25.04 30.9 87.5 13 -0.6 31
15:15 1019 30.09 848 25.04 30.5 86.8 14 0.4 32.8
15:20 1019 30.09 848 25.04 30.6 87 13 -0.8 30.5
15:25 1019 30.09 848 25.04 30.7 87.2 14 0.1 32.1
15:30 1019 30.09 848 25.04 31.4 88.5 13 -0.2 31.6
15:35 1019 30.09 848 25.04 30.7 87.3 14 0.2 32.4
15:40 1019 30.09 848 25.04 30.3 86.6 13 -1.2 29.8
15:45 1019 30.09 848 25.04 30.6 87.2 13 -0.7 30.8
15:50 1019 30.09 848 25.04 30.9 87.7 13 -0.8 30.6
15:55 1019 30.09 848 25.04 31.4 88.4 13 0 32
16:00 1019 30.09 848 25.04 30.6 87.1 14 -0.1 31.9
16:05 1018 30.06 848 25.04 29.6 85.3 13 -0.9 30.4
16:10 1018 30.06 848 25.04 29.8 85.7 13 -1.2 29.9
16:15 1018 30.06 848 25.04 29.9 85.8 13 -1.7 29
16:20 1018 30.06 848 25.04 30.8 87.4 11 -2.3 27.8
16:25 1018 30.06 847 25.01 30.7 87.3 12 -2 28.5
16:30 1018 30.06 847 25.01 31.3 88.4 10 -3.9 24.9
16:35 1018 30.06 847 25.01 31.4 88.5 11 -2.8 26.9
16:40 1018 30.06 847 25.01 30.6 87.1 11 -3.4 25.9
16:45 1018 30.06 847 25.01 30.4 86.6 11 -3 26.6
16:50 1018 30.06 847 25.01 30.5 86.9 12 -2.2 28
16:55 1018 30.06 847 25.01 30.1 86.2 12 -2.4 27.7
17:00 1018 30.06 847 25.01 30.4 86.7 11 -2.6 27.3
17:05 1018 30.06 847 25.01 30.7 87.2 11 -2.7 27.2
17:10 1018 30.06 847 25.01 30.4 86.7 12 -2.3 27.8
17:15 1018 30.06 847 25.01 30.9 87.6 11 -3.2 26.3
17:20 1018 30.06 847 25.01 31.1 87.9 12 -1.6 29.1
17:25 1018 30.06 847 25.01 30.7 87.2 11 -2.5 27.5
17:30 1017 30.03 847 25.01 30.6 87 11 -2.9 26.8
17:35 1017 30.03 847 25.01 30.6 87.1 11 -2.5 27.6
17:40 1017 30.03 847 25.01 30.6 87.1 12 -2.2 28
17:45 1017 30.03 846 24.98 31 87.7 11 -2.2 28
17:50 1017 30.03 846 24.98 30.8 87.5 12 -2 28.4
17:55 1017 30.03 846 24.98 30.8 87.5 11 -2.3 27.9
18:00 1017 30.03 846 24.98 30.7 87.2 11 -2.6 27.2
18:05 1017 30.03 846 24.98 30.6 87 11 -2.6 27.3
18:10 1017 30.03 846 24.98 30.1 86.3 12 -2.2 28
18:15 1017 30.03 846 24.98 30.2 86.3 11 -2.7 27.2
18:20 1017 30.03 846 24.98 30.1 86.3 11 -2.9 26.7
18:25 1017 30.03 846 24.98 30.1 86.3 12 -2 28.3
18:30 1017 30.03 846 24.98 29.9 85.7 12 -2.3 27.9
18:35 1017 30.03 846 24.98 29.8 85.7 12 -1.9 28.5
18:40 1017 30.03 846 24.98 29.6 85.3 12 -2 28.4
18:45 1017 30.03 846 24.98 29.5 85.2 13 -1.6 29
18:50 1017 30.03 846 24.98 29.5 85.1 13 -1.7 28.9
18:55 1016 30 846 24.98 29.5 85.1 13 -1.8 28.7
19:00 1016 30 846 24.98 29.5 85.1 13 -1.8 28.8
19:05 1016 30 846 24.98 29.5 85.1 13 -1.4 29.4
19:10 1016 30 846 24.98 29.5 85.1 12 -2.1 28.1
19:15 1016 30 845 24.95 29.5 85 13 -1.8 28.8
19:20 1016 30 845 24.95 29.4 84.9 14 -0.7 30.7
19:25 1016 30 845 24.95 29.2 84.6 14 -0.8 30.5
19:30 1016 30 845 24.95 29 84.3 18 2.5 36.5
19:35 1016 30 845 24.95 28.6 83.4 21 4.4 39.9
19:40 1016 30 845 24.95 27.8 82 24 5.4 41.7
19:45 1016 30 845 24.95 27 80.5 26 6.2 43.2
19:50 1016 30 845 24.95 26.4 79.5 29 7 44.7
19:55 1016 30 845 24.95 26.1 78.9 27 5.9 42.6
20:00 1016 30 845 24.95 25.6 78 31 7.4 45.3
20:05 1016 30 845 24.95 24.9 76.8 28 5.5 41.9
20:10 1016 30 845 24.95 24.5 76.1 28 5.2 41.3
20:15 1016 30 845 24.95 23.9 75 28 4.6 40.3
20:20 1016 30 845 24.95 23.6 74.5 28 4.2 39.5
20:25 1016 30 845 24.95 23.3 73.9 28 4 39.1
20:30 1016 30 845 24.95 22.9 73.2 28 3.7 38.7
20:35 1016 30 845 24.95 22.7 72.8 29 4 39.2
20:40 1016 30 845 24.95 22 71.6 35 5.9 42.6
20:45 1016 30 845 24.95 21.3 70.4 32 4.3 39.7
20:50 1016 30 845 24.95 21.6 70.8 26 1.4 34.5
20:55 1016 30 845 24.95 22.2 72 24 0.9 33.7
21:00 1016 30 845 24.95 22.6 72.7 24 1.2 34.1
21:05 1016 30 845 24.95 22.3 72.2 25 1.4 34.5
21:10 1016 30 845 24.95 21.7 71.1 25 1.1 33.9
21:15 1016 30 845 24.95 21.9 71.3 24 0.6 33
21:20 1016 30 845 24.95 21.8 71.3 26 1.5 34.7
21:25 1016 30 845 24.95 21.5 70.6 26 1.3 34.4
21:30 1016 30 845 24.95 21.1 69.9 27 1.3 34.4
21:35 1016 30 845 24.95 21.3 70.3 25 0.5 32.9
21:40 1016 30 845 24.95 21.6 70.9 25 1.1 34
21:45 1016 30 845 24.95 21.3 70.4 26 1.2 34.1
21:50 1016 30 845 24.95 21.1 70 26 1.2 34.2
21:55 1016 30 845 24.95 21 69.7 27 1.2 34.2
22:00 1016 30 845 24.95 20.8 69.5 27 1.2 34.2
22:05 1016 30 845 24.95 20.9 69.5 27 1.2 34.1
22:10 1016 30 845 24.95 21.5 70.6 23 -0.3 31.5
22:15 1016 30 845 24.95 22 71.6 24 0.6 33.2
22:20 1016 30 845 24.95 21.6 70.8 23 -0.1 31.8
22:25 1016 30 845 24.95 21.8 71.2 22 -0.6 30.9
22:30 1016 30 845 24.95 22.5 72.4 21 -0.7 30.8
22:35 1016 30 845 24.95 22.4 72.3 21 -0.6 30.9
22:40 1016 30 845 24.95 22.3 72.1 22 -0.5 31.1
22:45 1016 30 845 24.95 22.3 72.1 22 -0.5 31.1
22:50 1016 30 845 24.95 22.2 71.9 21 -0.7 30.8
22:55 1016 30 845 24.95 22.2 71.9 21 -0.7 30.7
23:00 1016 30 845 24.95 22.1 71.8 22 -0.4 31.2
23:05 1016 30 845 24.95 21.8 71.2 23 -0.3 31.4
23:10 1016 30 845 24.95 21.3 70.4 25 0.4 32.7
23:15 1016 30 845 24.95 21.1 69.9 24 -0.2 31.6
23:20 1016 30 845 24.95 21.1 70 23 -0.6 31
23:25 1015 29.97 845 24.95 21.3 70.4 22 -0.9 30.4
23:30 1015 29.97 845 24.95 21.4 70.5 23 -0.4 31.2
23:35 1015 29.97 845 24.95 21.2 70.2 23 -0.3 31.4
23:40 1015 29.97 845 24.95 20.8 69.5 26 0.7 33.3
23:45 1015 29.97 845 24.95 20.2 68.4 26 0.1 32.1
23:50 1015 29.97 845 24.95 20.5 68.9 25 0 32.1
23:55 1015 29.97 845 24.95 20.7 69.2 25 0.4 32.7
24:00 1015 29.97 845 24.95 20.5 68.9 25 -0 32